Time;durP1;ratioP1;P1;durP2;ratioP2;P2;SDS_P1;SDS_P2;PMS_P1;PMS_P2;Temp;Humidity;BMP_temperature;BMP_pressure;BME280_temperature;BME280_humidity;BME280_pressure;Samples;Min_cycle;Max_cycle;Signal;HPM_P1;HPM_P2
2021/12/03 00:01:16;;;;;;;;;20.00;17.25;;;;;4.83;67.22;100892.88;4994153;27;45356;-72
2021/12/03 00:03:42;;;;;;;;;17.25;17.00;;;;;4.97;66.52;100906.53;4991973;28;45577;-69
2021/12/03 00:06:08;;;;;;;;;16.50;14.25;;;;;4.94;67.19;100909.22;4997824;27;46786;-70
2021/12/03 00:08:33;;;;;;;;;15.00;15.00;;;;;4.96;66.91;100906.56;4992257;28;45440;-69
2021/12/03 00:11:02;;;;;;;;;14.25;14.00;;;;;4.94;66.84;100905.72;4993321;28;46077;-70
2021/12/03 00:13:30;;;;;;;;;17.00;15.00;;;;;4.94;67.02;100900.44;4993686;27;45575;-70
2021/12/03 00:15:57;;;;;;;;;17.75;17.00;;;;;4.96;67.27;100909.19;4993826;27;45495;-71
2021/12/03 00:18:23;;;;;;;;;17.25;15.00;;;;;4.89;67.46;100903.22;4994915;27;45766;-70
2021/12/03 00:20:50;;;;;;;;;22.50;19.50;;;;;4.91;66.87;100908.44;4994844;27;47958;-70
2021/12/03 00:23:17;;;;;;;;;21.00;19.50;;;;;4.93;67.04;100912.75;5011234;27;45456;-71
2021/12/03 00:25:43;;;;;;;;;22.00;19.50;;;;;4.81;68.40;100896.44;4994094;27;45384;-71
2021/12/03 00:28:08;;;;;;;;;21.00;16.50;;;;;4.87;67.88;100918.22;4993730;28;45387;-69
2021/12/03 00:30:35;;;;;;;;;16.75;14.25;;;;;4.89;67.12;100913.75;5018061;27;46007;-69
2021/12/03 00:33:02;;;;;;;;;20.50;19.00;;;;;4.93;67.75;100912.75;5088420;27;45370;-70
2021/12/03 00:35:27;;;;;;;;;18.25;18.25;;;;;4.93;67.76;100918.03;4993711;28;45328;-70
2021/12/03 00:37:53;;;;;;;;;17.50;15.75;;;;;4.86;67.73;100894.53;4993960;28;45263;-71
2021/12/03 00:40:28;;;;;;;;;17.50;17.00;;;;;4.96;67.15;100901.28;4992899;27;45885;-70
2021/12/03 00:42:54;;;;;;;;;17.00;17.00;;;;;4.97;67.28;100913.56;4972424;28;45499;-70
2021/12/03 00:45:20;;;;;;;;;19.50;14.75;;;;;4.94;67.19;100913.63;4974926;28;45354;-71
2021/12/03 00:47:46;;;;;;;;;15.25;13.50;;;;;4.82;67.32;100903.41;4995521;27;45520;-68
2021/12/03 00:50:16;;;;;;;;;17.50;16.75;;;;;4.91;67.32;100919.00;4996462;27;45849;-69
2021/12/03 00:52:42;;;;;;;;;21.50;17.25;;;;;4.88;67.58;100914.66;4971391;28;45452;-70
2021/12/03 00:55:09;;;;;;;;;24.00;15.00;;;;;4.82;67.46;100903.41;4991180;28;45415;-70
2021/12/03 00:57:34;;;;;;;;;21.75;17.50;;;;;4.88;67.64;100913.81;4993508;27;45680;-70
2021/12/03 01:00:00;;;;;;;;;22.25;17.50;;;;;4.92;67.77;100920.72;4987482;27;48145;-69
2021/12/03 01:02:26;;;;;;;;;17.75;17.00;;;;;4.86;67.89;100908.59;4991130;27;45460;-69
2021/12/03 01:04:51;;;;;;;;;20.00;15.50;;;;;4.89;67.00;100926.06;4992724;28;45510;-71
2021/12/03 01:07:17;;;;;;;;;15.00;12.75;;;;;4.84;68.27;100904.28;4975808;28;45542;-68
2021/12/03 01:09:43;;;;;;;;;14.00;14.00;;;;;4.89;67.18;100920.81;4993061;27;45602;-71
2021/12/03 01:12:09;;;;;;;;;18.25;14.75;;;;;4.95;67.81;100936.47;4992781;27;45367;-71
2021/12/03 01:14:36;;;;;;;;;18.25;16.25;;;;;4.92;67.59;100915.44;4992897;27;45562;-70
2021/12/03 01:17:02;;;;;;;;;16.25;15.25;;;;;5.02;67.77;100940.66;4975162;28;45535;-71
2021/12/03 01:19:27;;;;;;;;;20.00;18.25;;;;;5.03;67.20;100937.97;4992354;28;45283;-70
2021/12/03 01:21:53;;;;;;;;;16.00;13.00;;;;;5.03;66.75;100939.75;4992099;27;45540;-73
2021/12/03 01:24:18;;;;;;;;;14.25;14.25;;;;;5.05;67.21;100932.66;4992230;27;46630;-68
2021/12/03 01:26:45;;;;;;;;;14.75;14.25;;;;;4.94;66.68;100913.63;4975760;28;45495;-70
2021/12/03 01:29:11;;;;;;;;;26.75;21.00;;;;;5.09;66.66;100944.84;4992099;27;46046;-70
2021/12/03 01:31:37;;;;;;;;;20.50;13.50;;;;;5.10;66.63;100953.63;5039041;27;45866;-70
2021/12/03 01:34:03;;;;;;;;;16.50;15.00;;;;;4.99;66.71;100930.19;4992289;28;45338;-71
2021/12/03 01:36:28;;;;;;;;;23.50;22.00;;;;;5.00;66.37;100929.28;4984822;28;45603;-71
2021/12/03 01:38:54;;;;;;;;;25.75;17.50;;;;;4.96;66.86;100927.66;5009443;28;46245;-70
2021/12/03 01:41:20;;;;;;;;;31.00;28.25;;;;;5.03;67.39;100937.09;4992565;28;45573;-71
2021/12/03 01:43:45;;;;;;;;;18.25;17.75;;;;;5.01;66.67;100941.56;4971927;28;45309;-71
2021/12/03 01:46:13;;;;;;;;;17.50;15.25;;;;;5.08;67.31;100948.41;4973207;28;45374;-69
2021/12/03 01:48:39;;;;;;;;;17.00;16.25;;;;;5.08;66.56;100942.22;4969792;28;45440;-70
2021/12/03 01:51:06;;;;;;;;;17.00;13.00;;;;;5.10;66.82;100937.81;4992770;27;46889;-69
2021/12/03 01:53:36;;;;;;;;;19.25;17.25;;;;;5.14;67.24;100948.22;4975735;28;45423;-71
2021/12/03 01:56:06;;;;;;;;;18.00;15.50;;;;;5.19;66.48;100963.91;4974952;28;45606;-71
2021/12/03 01:58:32;;;;;;;;;13.00;13.00;;;;;5.21;67.05;100954.19;4991946;28;46089;-71
2021/12/03 02:01:01;;;;;;;;;21.00;17.25;;;;;5.23;67.23;100950.59;4975713;28;45946;-69
2021/12/03 02:03:29;;;;;;;;;15.25;15.00;;;;;5.25;67.29;100955.84;4991264;28;45523;-70
2021/12/03 02:05:55;;;;;;;;;23.75;15.50;;;;;5.30;66.83;100957.41;4993141;28;45513;-70
2021/12/03 02:08:22;;;;;;;;;16.75;15.00;;;;;5.32;66.43;100955.59;4995243;28;46408;-70
2021/12/03 02:10:48;;;;;;;;;20.00;16.00;;;;;5.28;67.05;100945.19;4995940;27;45305;-69
2021/12/03 02:13:14;;;;;;;;;17.75;15.00;;;;;5.29;66.53;100944.28;5015864;27;45351;-71
2021/12/03 02:15:43;;;;;;;;;13.00;12.00;;;;;5.30;66.48;100949.50;5000547;28;45354;-69
2021/12/03 02:18:10;;;;;;;;;13.75;11.25;;;;;5.28;66.75;100935.50;4994961;28;45464;-68
2021/12/03 02:20:42;;;;;;;;;11.00;9.00;;;;;5.31;66.76;100945.97;4994890;28;45362;-69
2021/12/03 02:23:08;;;;;;;;;14.25;11.50;;;;;5.34;66.20;100945.03;5008642;28;45449;-71
2021/12/03 02:25:34;;;;;;;;;11.00;11.00;;;;;5.12;66.89;100902.59;4977943;28;45330;-68
2021/12/03 02:27:59;;;;;;;;;9.25;9.25;;;;;5.31;66.67;100942.47;4995142;27;45645;-70
2021/12/03 02:30:25;;;;;;;;;12.00;8.50;;;;;5.35;66.55;100957.31;5009897;27;45439;-69
2021/12/03 02:32:52;;;;;;;;;11.25;9.25;;;;;5.30;66.20;100931.03;5080248;27;45399;-69
2021/12/03 02:35:20;;;;;;;;;9.25;8.75;;;;;5.38;65.96;100940.53;5039998;27;45541;-70
2021/12/03 02:37:46;;;;;;;;;11.00;8.25;;;;;5.42;66.29;100952.69;4995241;28;46005;-70
2021/12/03 02:40:14;;;;;;;;;11.00;11.00;;;;;5.43;65.52;100950.00;4977033;28;45613;-69
2021/12/03 02:42:40;;;;;;;;;11.50;9.75;;;;;5.36;65.44;100937.06;4994795;27;45490;-72
2021/12/03 02:45:06;;;;;;;;;10.25;7.75;;;;;5.43;66.27;100944.75;4993664;27;45534;-68
2021/12/03 02:47:35;;;;;;;;;11.00;6.00;;;;;5.39;65.12;100926.41;4974370;28;46344;-68
2021/12/03 02:50:01;;;;;;;;;8.50;8.50;;;;;5.48;65.78;100942.00;4965781;28;45834;-69
2021/12/03 02:52:26;;;;;;;;;10.50;8.50;;;;;5.51;65.96;100928.69;4977344;28;45253;-68
2021/12/03 02:54:52;;;;;;;;;8.25;6.50;;;;;5.55;66.23;100931.19;5001918;28;45643;-70
2021/12/03 02:57:17;;;;;;;;;11.25;10.00;;;;;5.51;65.47;100916.38;4995221;28;45509;-69
2021/12/03 02:59:43;;;;;;;;;11.00;9.00;;;;;5.56;65.58;100918.84;4994334;27;45281;-70
2021/12/03 03:02:09;;;;;;;;;8.50;8.25;;;;;5.54;65.68;100902.22;4981262;28;45340;-69
2021/12/03 03:04:34;;;;;;;;;11.00;9.00;;;;;5.59;65.33;100908.22;4990911;28;47472;-68
2021/12/03 03:07:00;;;;;;;;;15.00;13.75;;;;;5.58;65.53;100898.56;4994485;28;46292;-70
2021/12/03 03:09:26;;;;;;;;;16.25;10.00;;;;;5.55;65.85;100896.03;4976965;28;46041;-70
2021/12/03 03:11:52;;;;;;;;;10.50;10.50;;;;;5.56;65.34;100897.75;5000133;27;45447;-69
2021/12/03 03:14:18;;;;;;;;;11.00;8.25;;;;;5.53;65.59;100896.09;5001968;27;45584;-70
2021/12/03 03:16:44;;;;;;;;;8.00;5.00;;;;;5.48;64.94;100884.81;4993656;28;46024;-68
2021/12/03 03:19:16;;;;;;;;;12.25;11.00;;;;;5.54;65.82;100891.66;4996124;28;45472;-70
2021/12/03 03:21:44;;;;;;;;;12.00;12.00;;;;;5.53;64.91;100892.59;4990654;28;45355;-70
2021/12/03 03:24:09;;;;;;;;;14.25;11.75;;;;;5.55;66.12;100896.03;4994711;28;45316;-68
2021/12/03 03:26:39;;;;;;;;;14.75;11.50;;;;;5.46;65.93;100880.47;4976110;28;47621;-71
2021/12/03 03:29:06;;;;;;;;;12.00;12.00;;;;;5.52;65.71;100885.56;4976497;28;45380;-70
2021/12/03 03:31:33;;;;;;;;;9.00;8.25;;;;;5.55;64.76;100902.16;4991643;28;45383;-70
2021/12/03 03:33:59;;;;;;;;;9.75;8.00;;;;;5.56;64.98;100898.63;4975826;28;45403;-69
2021/12/03 03:36:25;;;;;;;;;8.75;8.75;;;;;5.54;64.41;100908.34;4993983;27;45331;-71
2021/12/03 03:38:50;;;;;;;;;10.25;8.75;;;;;5.52;65.60;100901.41;5012788;28;45581;-69
2021/12/03 03:41:16;;;;;;;;;13.00;11.00;;;;;5.53;64.96;100900.50;4976686;28;45474;-71
2021/12/03 03:43:42;;;;;;;;;11.00;11.00;;;;;5.52;65.03;100896.13;4994322;28;45319;-68
2021/12/03 03:46:08;;;;;;;;;7.25;4.00;;;;;5.43;64.77;100862.97;4993747;27;46176;-70
2021/12/03 03:48:33;;;;;;;;;13.50;10.50;;;;;5.56;65.35;100895.97;4983760;28;45454;-68
2021/12/03 03:50:59;;;;;;;;;14.50;9.75;;;;;5.57;65.51;100902.97;4982709;27;45332;-69
2021/12/03 03:53:25;;;;;;;;;11.25;8.75;;;;;5.58;65.31;100906.47;4994308;28;45511;-68
2021/12/03 03:55:50;;;;;;;;;9.00;8.00;;;;;5.56;64.47;100897.75;4976183;28;46912;-68
2021/12/03 03:58:16;;;;;;;;;3.50;3.50;;;;;5.51;65.15;100889.13;4998837;28;45593;-71
2021/12/03 04:00:43;;;;;;;;;9.50;7.25;;;;;5.53;65.11;100882.03;4985028;28;45901;-68
2021/12/03 04:03:09;;;;;;;;;8.75;8.75;;;;;5.61;65.56;100885.31;4992908;27;45306;-68
2021/12/03 04:05:34;;;;;;;;;8.50;8.50;;;;;5.61;64.28;100882.66;4986874;28;45445;-69
2021/12/03 04:08:00;;;;;;;;;6.00;6.00;;;;;5.52;65.03;100880.31;4994081;28;45517;-69
2021/12/03 04:10:26;;;;;;;;;6.50;6.50;;;;;5.53;64.80;100877.63;4993676;27;45713;-68
2021/12/03 04:12:52;;;;;;;;;9.00;7.50;;;;;5.56;65.44;100885.44;4994549;27;45659;-67
2021/12/03 04:15:19;;;;;;;;;5.50;2.00;;;;;5.55;64.41;100874.94;4994034;28;45992;-70
2021/12/03 04:17:45;;;;;;;;;7.50;6.00;;;;;5.50;64.04;100874.22;4994790;27;45346;-68
2021/12/03 04:20:13;;;;;;;;;5.00;5.00;;;;;5.50;64.54;100863.66;4993775;28;45691;-70
2021/12/03 04:22:39;;;;;;;;;5.00;5.00;;;;;5.47;64.57;100863.72;4994144;27;45547;-70
2021/12/03 04:25:07;;;;;;;;;5.75;5.50;;;;;5.48;65.04;100873.41;4993612;28;46525;-70
2021/12/03 04:27:34;;;;;;;;;8.00;7.00;;;;;5.39;64.06;100871.03;4975605;28;45402;-69
2021/12/03 04:30:00;;;;;;;;;11.00;7.00;;;;;5.44;64.36;100898.13;4993423;28;45295;-69
2021/12/03 04:32:25;;;;;;;;;7.00;6.25;;;;;5.40;64.87;100880.66;5076481;27;45551;-69
2021/12/03 04:34:52;;;;;;;;;8.00;7.00;;;;;5.45;64.57;100884.03;5018854;27;45622;-69
2021/12/03 04:37:18;;;;;;;;;7.75;7.50;;;;;5.49;64.91;100875.13;4975933;28;45296;-71
2021/12/03 04:39:43;;;;;;;;;7.25;7.25;;;;;5.50;64.58;100871.56;5007670;28;45500;-69
2021/12/03 04:42:09;;;;;;;;;7.25;6.00;;;;;5.51;64.12;100886.50;4996488;28;45525;-69
2021/12/03 04:44:35;;;;;;;;;9.00;5.75;;;;;5.51;64.19;100879.44;4993161;28;45420;-68
2021/12/03 04:47:01;;;;;;;;;4.50;4.50;;;;;5.48;64.65;100861.06;4993269;27;45401;-71
2021/12/03 04:49:27;;;;;;;;;8.00;6.75;;;;;5.43;63.73;100865.59;4993557;28;45281;-69
2021/12/03 04:51:54;;;;;;;;;4.75;4.75;;;;;5.45;64.54;100857.66;4993357;27;45422;-71
2021/12/03 04:54:20;;;;;;;;;7.00;5.75;;;;;5.37;63.97;100842.06;4991708;28;47258;-71
2021/12/03 04:56:46;;;;;;;;;7.50;7.50;;;;;5.40;63.61;100854.28;4995300;28;45915;-70
2021/12/03 04:59:12;;;;;;;;;5.00;5.00;;;;;5.44;64.22;100875.25;4999860;27;45443;-71
2021/12/03 05:01:39;;;;;;;;;7.75;7.50;;;;;5.33;63.98;100859.75;5006644;28;45371;-69
2021/12/03 05:04:04;;;;;;;;;4.00;4.00;;;;;5.38;64.36;100850.84;4998986;27;46131;-72
2021/12/03 05:06:41;;;;;;;;;6.00;5.00;;;;;5.45;63.60;100863.78;4992818;28;45361;-71
2021/12/03 05:09:07;;;;;;;;;6.75;4.50;;;;;5.30;63.96;100829.97;4993426;28;45238;-72
2021/12/03 05:11:32;;;;;;;;;5.50;4.25;;;;;5.42;64.38;100853.34;4993113;28;45482;-70
2021/12/03 05:13:58;;;;;;;;;11.00;7.00;;;;;5.40;64.25;100838.47;4993075;27;45426;-72
2021/12/03 05:16:23;;;;;;;;;5.75;5.75;;;;;5.38;64.43;100838.53;4993558;28;45426;-72
2021/12/03 05:18:49;;;;;;;;;4.00;4.00;;;;;5.38;63.20;100830.63;4993127;27;45189;-73
2021/12/03 05:21:17;;;;;;;;;7.25;5.25;;;;;5.39;63.72;100826.19;4984050;27;46659;-69
2021/12/03 05:23:46;;;;;;;;;7.25;6.00;;;;;5.22;64.21;100795.09;4979245;28;47640;-73
2021/12/03 05:26:11;;;;;;;;;7.00;5.00;;;;;5.32;64.68;100821.09;4992599;28;45273;-71
2021/12/03 05:28:36;;;;;;;;;5.00;5.00;;;;;5.37;64.12;100817.47;5005635;27;45510;-71
2021/12/03 05:31:02;;;;;;;;;11.75;8.00;;;;;5.40;63.81;100830.56;4991231;28;45531;-71
2021/12/03 05:33:28;;;;;;;;;9.50;6.75;;;;;5.42;64.27;100831.38;4972344;28;46928;-71
2021/12/03 05:35:53;;;;;;;;;7.00;4.75;;;;;5.45;63.78;100820.72;4992832;27;45384;-75
2021/12/03 05:38:19;;;;;;;;;8.25;5.50;;;;;5.45;63.80;100811.03;4992904;28;45292;-72
2021/12/03 05:40:44;;;;;;;;;10.00;5.00;;;;;5.51;63.77;100815.25;4994986;28;45175;-68
2021/12/03 05:43:10;;;;;;;;;7.50;4.25;;;;;5.54;63.76;100818.66;4996547;27;45448;-70
2021/12/03 05:45:36;;;;;;;;;5.50;5.00;;;;;5.54;63.79;100820.44;4995513;28;45303;-69
2021/12/03 05:48:02;;;;;;;;;3.50;3.50;;;;;5.51;63.25;100808.22;4995769;27;45444;-69
2021/12/03 05:50:29;;;;;;;;;4.25;3.00;;;;;5.55;63.61;100811.59;4986158;28;45414;-69
2021/12/03 05:52:57;;;;;;;;;9.00;7.00;;;;;5.56;63.45;100802.78;5004623;27;45532;-70
2021/12/03 05:55:25;;;;;;;;;2.50;2.00;;;;;5.58;62.94;100803.59;4973914;28;45227;-70
2021/12/03 05:57:51;;;;;;;;;4.00;4.00;;;;;5.65;63.48;100797.22;4975956;28;45219;-71
2021/12/03 06:00:28;;;;;;;;;0.75;0.75;;;;;5.66;62.83;100787.53;4994389;28;45893;-71
2021/12/03 06:02:54;;;;;;;;;6.25;5.00;;;;;5.68;62.78;100776.00;4994796;28;45535;-70
2021/12/03 06:05:24;;;;;;;;;8.25;5.75;;;;;5.69;62.98;100768.94;4972464;28;45528;-70
2021/12/03 06:07:49;;;;;;;;;7.00;4.75;;;;;5.66;63.23;100762.00;4992992;28;45506;-68
2021/12/03 06:10:15;;;;;;;;;9.75;6.50;;;;;5.67;62.22;100763.72;4996057;27;45548;-67
2021/12/03 06:12:40;;;;;;;;;8.75;4.50;;;;;5.76;62.68;100781.03;5001197;28;45480;-68
2021/12/03 06:15:06;;;;;;;;;10.25;6.75;;;;;5.75;62.29;100787.22;5011853;27;45429;-67
2021/12/03 06:17:32;;;;;;;;;8.75;7.25;;;;;5.67;63.37;100774.28;4983163;28;45349;-65
2021/12/03 06:19:57;;;;;;;;;11.00;7.00;;;;;5.67;63.28;100774.28;5014909;27;45424;-66
2021/12/03 06:22:22;;;;;;;;;7.00;7.00;;;;;5.77;62.10;100791.53;5008325;27;45480;-65
2021/12/03 06:24:48;;;;;;;;;8.25;6.75;;;;;5.77;61.88;100786.25;5010461;27;45433;-62
2021/12/03 06:27:14;;;;;;;;;6.00;6.00;;;;;5.68;63.04;100775.13;4988392;27;45451;-65
2021/12/03 06:29:39;;;;;;;;;8.50;4.50;;;;;5.71;62.42;100781.16;5008395;27;45500;-64
2021/12/03 06:32:09;;;;;;;;;7.75;4.00;;;;;5.74;62.65;100780.22;5034369;28;46277;-64
2021/12/03 06:34:34;;;;;;;;;7.75;4.00;;;;;5.81;62.90;100793.16;5061368;27;45702;-65
2021/12/03 06:37:00;;;;;;;;;7.00;7.00;;;;;5.80;62.60;100788.78;4995155;27;45512;-65
2021/12/03 06:39:25;;;;;;;;;2.00;2.00;;;;;5.73;62.77;100779.38;4983676;28;45494;-65
2021/12/03 06:41:51;;;;;;;;;4.00;4.00;;;;;5.73;63.32;100782.00;5011901;27;45663;-63
2021/12/03 06:44:17;;;;;;;;;4.50;4.50;;;;;5.84;62.58;100802.75;5000878;27;45448;-68
2021/12/03 06:46:43;;;;;;;;;2.00;2.00;;;;;5.82;63.56;100800.16;4982517;27;45765;-68
2021/12/03 06:49:08;;;;;;;;;7.75;4.50;;;;;5.78;62.18;100776.56;4986788;28;45565;-62
2021/12/03 06:51:40;;;;;;;;;5.00;4.00;;;;;5.82;62.65;100789.59;4987737;28;45430;-63
2021/12/03 06:54:08;;;;;;;;;7.50;4.50;;;;;5.75;62.67;100779.31;5008726;28;45449;-68
2021/12/03 06:56:44;;;;;;;;;4.00;4.00;;;;;5.84;62.18;100793.03;5014432;28;45449;-64
2021/12/03 06:59:11;;;;;;;;;2.00;2.00;;;;;5.87;62.92;100797.38;4981670;27;45313;-67
2021/12/03 07:01:37;;;;;;;;;4.75;4.00;;;;;5.82;62.38;100784.31;4970873;28;46203;-64
2021/12/03 07:04:03;;;;;;;;;3.00;3.00;;;;;5.78;62.71;100782.72;4990892;28;45956;-63
2021/12/03 07:06:29;;;;;;;;;4.00;2.50;;;;;5.82;62.02;100780.81;4993668;27;45379;-64
2021/12/03 07:08:54;;;;;;;;;6.00;1.00;;;;;5.86;61.62;100780.69;4985544;27;45295;-64
2021/12/03 07:11:19;;;;;;;;;5.50;4.75;;;;;5.81;62.31;100777.31;4994214;28;45396;-67
2021/12/03 07:13:45;;;;;;;;;3.50;3.50;;;;;5.75;62.67;100774.91;4973991;28;45513;-70
2021/12/03 07:16:10;;;;;;;;;3.50;3.50;;;;;5.91;61.80;100785.84;4975746;28;45229;-63
2021/12/03 07:18:37;;;;;;;;;4.00;4.00;;;;;5.90;62.69;100771.78;4976955;28;45681;-62
2021/12/03 07:21:06;;;;;;;;;4.75;4.25;;;;;5.96;62.84;100772.47;4990311;28;45451;-66
2021/12/03 07:23:32;;;;;;;;;2.50;2.50;;;;;5.95;62.27;100770.75;4983671;27;45227;-69
2021/12/03 07:25:59;;;;;;;;;4.75;4.50;;;;;5.87;62.61;100757.78;4987591;27;47155;-65
2021/12/03 07:28:25;;;;;;;;;7.50;5.00;;;;;5.89;62.75;100763.88;4997853;27;45394;-65
2021/12/03 07:30:51;;;;;;;;;6.00;5.00;;;;;5.90;62.14;100755.94;5012108;27;46153;-68
2021/12/03 07:33:17;;;;;;;;;4.75;4.00;;;;;5.90;62.39;100760.34;4981165;28;45473;-65
2021/12/03 07:35:45;;;;;;;;;5.50;5.50;;;;;5.88;61.99;100743.69;4996358;27;45521;-65
2021/12/03 07:38:17;;;;;;;;;4.50;4.50;;;;;6.03;61.47;100771.34;4982286;28;44881;-67
2021/12/03 07:40:43;;;;;;;;;5.25;4.50;;;;;5.96;62.33;100754.84;4964710;28;45527;-68
2021/12/03 07:43:09;;;;;;;;;5.25;4.00;;;;;5.95;61.60;100752.25;4977937;28;45314;-65
2021/12/03 07:45:35;;;;;;;;;3.00;3.00;;;;;6.03;62.38;100776.63;4961892;28;45316;-67
2021/12/03 07:48:00;;;;;;;;;4.00;3.00;;;;;5.95;62.34;100768.97;4979797;28;45509;-65
2021/12/03 07:50:26;;;;;;;;;5.25;5.00;;;;;5.95;61.71;100768.09;4982402;28;45256;-62
2021/12/03 07:52:51;;;;;;;;;7.00;5.00;;;;;5.97;62.12;100776.81;5000310;27;45330;-67
2021/12/03 07:55:17;;;;;;;;;4.00;4.00;;;;;6.01;62.21;100768.78;4995519;28;45407;-69
2021/12/03 07:57:42;;;;;;;;;6.25;5.75;;;;;6.04;61.87;100767.78;4982980;28;45222;-68
2021/12/03 08:00:09;;;;;;;;;9.50;4.00;;;;;6.00;61.48;100771.47;4999684;27;45971;-66
2021/12/03 08:02:35;;;;;;;;;0.50;0.50;;;;;5.94;62.20;100766.38;5000838;27;45228;-66
2021/12/03 08:05:00;;;;;;;;;4.00;4.00;;;;;5.97;61.49;100763.63;5000490;28;45215;-68
2021/12/03 08:07:26;;;;;;;;;2.00;2.00;;;;;6.00;61.37;100760.91;4984785;28;45552;-68
2021/12/03 08:09:51;;;;;;;;;4.00;4.00;;;;;5.89;61.04;100743.63;5057808;27;46200;-67
2021/12/03 08:12:17;;;;;;;;;3.50;3.50;;;;;6.01;61.02;100771.41;5000183;27;45384;-67
2021/12/03 08:14:43;;;;;;;;;4.00;4.00;;;;;5.95;61.00;100762.81;5019669;27;45454;-69
2021/12/03 08:17:09;;;;;;;;;4.25;2.00;;;;;5.90;61.09;100749.78;5001291;27;45584;-67
2021/12/03 08:19:34;;;;;;;;;2.00;2.00;;;;;5.94;61.35;100761.97;4995523;28;45946;-71
2021/12/03 08:22:00;;;;;;;;;1.75;1.75;;;;;5.90;60.79;100744.50;5000754;27;45428;-71
2021/12/03 08:24:26;;;;;;;;;1.25;1.25;;;;;5.97;60.77;100758.34;4986511;28;45287;-68
2021/12/03 08:26:51;;;;;;;;;2.00;2.00;;;;;5.95;61.37;100760.19;5000756;27;45414;-67
2021/12/03 08:29:17;;;;;;;;;4.00;1.00;;;;;5.96;61.09;100759.28;4989141;28;46928;-67
2021/12/03 08:31:42;;;;;;;;;3.50;3.50;;;;;5.94;59.76;100750.53;4987979;27;45442;-66
2021/12/03 08:34:12;;;;;;;;;2.00;2.00;;;;;6.00;60.24;100766.19;5005630;28;45513;-64
2021/12/03 08:36:38;;;;;;;;;3.50;1.75;;;;;5.90;60.42;100737.47;4990305;28;45366;-63
2021/12/03 08:39:05;;;;;;;;;2.00;0.25;;;;;6.00;60.24;100745.06;4999022;27;47199;-65
2021/12/03 08:41:30;;;;;;;;;4.00;4.00;;;;;6.02;60.70;100743.22;4975984;28;45444;-67
2021/12/03 08:43:56;;;;;;;;;2.00;2.00;;;;;6.00;60.63;100739.78;5051797;27;45333;-65
2021/12/03 08:46:26;;;;;;;;;4.00;4.00;;;;;6.15;60.24;100757.72;5052660;27;45561;-67
2021/12/03 08:48:52;;;;;;;;;6.75;4.00;;;;;6.19;60.48;100762.84;5027921;27;46259;-66
2021/12/03 08:51:31;;;;;;;;;4.00;4.00;;;;;6.12;59.61;100756.06;4984923;27;45266;-65
2021/12/03 08:56:40;;;;;;;;;6.25;4.00;;;;;6.14;59.89;100769.22;4976253;28;45339;-67
2021/12/03 08:59:06;;;;;;;;;5.25;5.00;;;;;5.99;60.18;100746.84;4985430;28;45421;-67
2021/12/03 09:01:32;;;;;;;;;5.25;5.25;;;;;6.15;59.76;100760.38;4990215;28;45476;-65
2021/12/03 09:03:58;;;;;;;;;5.00;5.00;;;;;6.19;59.14;100751.41;4984987;28;45469;-66
2021/12/03 09:06:23;;;;;;;;;6.25;6.25;;;;;5.99;59.71;100738.94;4990693;28;45597;-63
2021/12/03 09:08:49;;;;;;;;;7.50;6.00;;;;;6.04;60.21;100762.50;4974443;28;47284;-68
2021/12/03 09:11:16;;;;;;;;;2.00;2.00;;;;;6.05;60.50;100766.88;4998293;28;45264;-58
2021/12/03 09:13:42;;;;;;;;;10.00;7.75;;;;;5.89;60.59;100753.31;4993871;28;45522;-57
2021/12/03 09:16:10;;;;;;;;;13.25;9.00;;;;;5.82;60.66;100733.31;5015611;28;45489;-57
2021/12/03 09:18:39;;;;;;;;;8.50;5.00;;;;;5.95;60.32;100745.22;5017279;28;46300;-64
2021/12/03 09:21:09;;;;;;;;;5.50;5.50;;;;;5.98;61.67;100760.06;5000248;27;45344;-65
2021/12/03 09:23:50;;;;;;;;;5.00;4.00;;;;;5.87;61.08;100750.75;5017261;27;45393;-66
2021/12/03 09:26:17;;;;;;;;;6.00;5.50;;;;;5.82;62.26;100741.22;5000181;28;45563;-65
2021/12/03 09:28:52;;;;;;;;;5.25;4.75;;;;;5.85;62.25;100736.69;5000184;27;47677;-69
2021/12/03 09:31:18;;;;;;;;;6.75;4.50;;;;;5.83;62.25;100741.19;5018290;28;45436;-67
2021/12/03 09:33:47;;;;;;;;;4.25;1.00;;;;;5.87;63.31;100734.03;5018348;28;45330;-66
2021/12/03 09:36:13;;;;;;;;;4.50;4.50;;;;;5.88;63.02;100720.78;5019248;27;45564;-66
2021/12/03 09:38:38;;;;;;;;;5.75;4.00;;;;;5.91;62.68;100718.06;5019153;27;46071;-65
2021/12/03 09:41:06;;;;;;;;;6.50;4.50;;;;;5.94;62.92;100716.22;5018788;27;45253;-66
2021/12/03 09:43:39;;;;;;;;;5.75;5.75;;;;;5.87;62.16;100697.94;5001039;27;45554;-70
2021/12/03 09:46:16;;;;;;;;;5.25;4.00;;;;;5.94;62.70;100703.03;5018220;27;45460;-67
2021/12/03 09:52:06;;;;;;;;;2.00;2.00;;;;;5.77;63.81;100696.53;5092935;27;45538;-65
2021/12/03 09:54:36;;;;;;;;;6.50;4.00;;;;;5.74;64.64;100691.38;5101666;27;45728;-63
2021/12/03 09:57:06;;;;;;;;;4.00;4.00;;;;;5.77;64.47;100709.72;5101864;27;45377;-64
2021/12/03 10:00:05;;;;;;;;;5.00;5.00;;;;;5.77;63.93;100706.22;5083388;27;47262;-66
2021/12/03 10:05:19;;;;;;;;;2.00;2.00;;;;;5.65;65.43;100717.19;5101910;27;45359;-68
2021/12/03 10:13:03;;;;;;;;;5.75;4.50;;;;;5.69;66.57;100713.53;5102221;27;45428;-66
2021/12/03 10:34:05;;;;;;;;;5.50;5.50;;;;;5.41;69.93;100668.75;5100116;27;45168;-65
2021/12/03 10:41:54;;;;;;;;;5.50;5.00;;;;;5.27;71.28;100646.34;5099675;27;45409;-64
2021/12/03 10:49:53;;;;;;;;;4.75;4.75;;;;;5.02;72.77;100616.44;4996557;27;45536;-68
2021/12/03 10:52:33;;;;;;;;;6.75;4.75;;;;;5.10;71.34;100632.00;4995950;28;46353;-65
2021/12/03 11:30:07;;;;;;;;;8.50;7.00;;;;;4.56;76.77;100570.50;4995438;28;45220;-64
2021/12/03 11:36:31;;;;;;;;;7.75;7.00;;;;;4.48;77.11;100558.47;4994649;28;45441;-64
2021/12/03 11:38:37;;;;;;;;;4.50;4.50;;;;;4.46;76.78;100553.28;4988745;28;45395;-62
2021/12/03 12:24:33;;;;;;;;;7.50;7.00;;;;;4.46;78.81;100429.50;5097810;27;45165;-65
2021/12/03 13:20:09;;;;;;;;;4.00;4.00;;;;;4.51;80.00;100355.59;4993916;28;45390;-63
2021/12/03 13:25:45;;;;;;;;;7.25;4.00;;;;;4.46;79.19;100337.34;5023854;28;45559;-63
2021/12/03 14:38:05;;;;;;;;;5.00;1.00;;;;;4.94;79.70;100229.28;5099129;27;45429;-64
2021/12/03 14:43:13;;;;;;;;;3.00;3.00;;;;;4.92;79.65;100214.47;5098957;27;45354;-64
2021/12/03 14:46:03;;;;;;;;;5.00;2.50;;;;;5.09;79.84;100234.91;5099073;27;45437;-66
2021/12/03 15:02:56;;;;;;;;;4.00;4.00;;;;;5.25;79.44;100204.38;4995352;28;45402;-64
2021/12/03 15:06:00;;;;;;;;;4.50;4.00;;;;;5.29;79.49;100193.63;4995152;28;46086;-63
2021/12/03 15:08:35;;;;;;;;;1.00;1.00;;;;;5.25;78.58;100175.38;4995576;28;45945;-67
2021/12/03 15:11:42;;;;;;;;;2.00;2.00;;;;;5.30;78.79;100189.22;4994637;28;45519;-66
2021/12/03 16:13:23;;;;;;;;;1.75;1.75;;;;;5.58;79.13;100110.66;4974869;28;45343;-63
2021/12/03 16:53:14;;;;;;;;;7.25;5.50;;;;;5.75;79.21;100025.50;4981707;28;45423;-70
2021/12/03 16:55:53;;;;;;;;;8.25;7.25;;;;;5.65;79.60;99999.59;4995354;28;45358;-68
2021/12/03 16:58:19;;;;;;;;;7.50;7.50;;;;;5.71;78.97;100010.72;4991637;28;45301;-66
2021/12/03 17:00:51;;;;;;;;;10.25;8.75;;;;;5.79;79.91;100007.75;4961921;28;45252;-60
2021/12/03 17:03:57;;;;;;;;;10.00;8.00;;;;;5.72;78.64;99977.28;4977404;28;45452;-64
2021/12/03 17:51:58;;;;;;;;;7.25;6.25;;;;;5.84;81.78;99953.81;5019418;27;45652;-57
2021/12/03 17:56:45;;;;;;;;;10.50;8.25;;;;;5.84;81.60;99930.06;4987305;28;45671;-70
2021/12/03 17:59:18;;;;;;;;;8.75;8.75;;;;;5.80;82.81;99915.31;5024110;27;45513;-59
2021/12/03 18:02:00;;;;;;;;;14.50;8.75;;;;;5.85;81.99;99918.59;5080340;27;45560;-61
2021/12/03 18:45:05;;;;;;;;;13.75;13.75;;;;;5.99;84.36;99840.56;5024147;27;45359;-58
2021/12/03 18:55:36;;;;;;;;;16.75;13.25;;;;;6.02;84.22;99814.03;4994905;28;45421;-58
2021/12/03 18:58:05;;;;;;;;;15.00;15.00;;;;;6.08;84.44;99813.72;5002854;27;45477;-59
2021/12/03 19:00:43;;;;;;;;;18.25;14.50;;;;;6.08;84.16;99804.00;5004043;27;45674;-60
2021/12/03 19:06:04;;;;;;;;;18.50;13.75;;;;;6.16;83.31;99806.28;5014481;28;45868;-61
2021/12/03 19:09:05;;;;;;;;;23.25;22.50;;;;;6.19;84.24;99801.69;4995901;28;45524;-60
2021/12/03 19:11:26;;;;;;;;;28.75;24.00;;;;;6.23;83.36;99807.66;5012045;28;45363;-61
2021/12/03 19:13:52;;;;;;;;;17.75;17.50;;;;;6.25;83.83;99797.91;5014185;28;45416;-62
2021/12/03 19:16:21;;;;;;;;;18.50;16.75;;;;;6.28;84.22;99804.81;5021663;27;45346;-60